sensor_id;sensor_type;location;lat;lon;timestamp;pressure;altitude;pressure_sealevel;temperature;humidity
49515;BME280;35415;47.870;16.058;2023-01-25T00:00:29;98934.41;;;1.63;95.62
49515;BME280;35415;47.870;16.058;2023-01-25T00:02:56;98944.31;;;1.77;95.62
49515;BME280;35415;47.870;16.058;2023-01-25T00:05:23;98946.97;;;1.77;95.78
49515;BME280;35415;47.870;16.058;2023-01-25T00:07:50;98934.72;;;1.76;95.79
49515;BME280;35415;47.870;16.058;2023-01-25T00:10:18;98945.50;;;1.74;95.52
49515;BME280;35415;47.870;16.058;2023-01-25T00:12:45;98931.59;;;1.64;95.78
49515;BME280;35415;47.870;16.058;2023-01-25T00:15:14;98940.53;;;1.71;95.65
49515;BME280;35415;47.870;16.058;2023-01-25T00:17:41;98950.63;;;1.76;95.79
49515;BME280;35415;47.870;16.058;2023-01-25T00:20:09;98946.16;;;1.76;96.01
49515;BME280;35415;47.870;16.058;2023-01-25T00:22:36;98941.66;;;1.77;95.58
49515;BME280;35415;47.870;16.058;2023-01-25T00:25:04;98948.81;;;1.76;95.61
49515;BME280;35415;47.870;16.058;2023-01-25T00:27:31;98941.84;;;1.75;95.94
49515;BME280;35415;47.870;16.058;2023-01-25T00:29:58;98932.88;;;1.76;95.56
49515;BME280;35415;47.870;16.058;2023-01-25T00:32:46;98933.53;;;1.78;95.70
49515;BME280;35415;47.870;16.058;2023-01-25T00:35:14;98940.84;;;1.76;95.36
49515;BME280;35415;47.870;16.058;2023-01-25T00:37:42;98939.19;;;1.75;95.18
49515;BME280;35415;47.870;16.058;2023-01-25T00:40:11;98950.63;;;1.76;95.09
49515;BME280;35415;47.870;16.058;2023-01-25T00:42:39;98951.28;;;1.78;95.32
49515;BME280;35415;47.870;16.058;2023-01-25T00:45:08;98943.50;;;1.76;95.56
49515;BME280;35415;47.870;16.058;2023-01-25T00:47:37;98947.97;;;1.76;95.47
49515;BME280;35415;47.870;16.058;2023-01-25T00:50:06;98950.78;;;1.74;95.45
49515;BME280;35415;47.870;16.058;2023-01-25T00:52:33;98948.31;;;1.73;95.34
49515;BME280;35415;47.870;16.058;2023-01-25T00:55:01;98946.66;;;1.72;95.34
49515;BME280;35415;47.870;16.058;2023-01-25T00:57:28;98950.63;;;1.76;95.82
49515;BME280;35415;47.870;16.058;2023-01-25T00:59:54;98943.84;;;1.73;95.61
49515;BME280;35415;47.870;16.058;2023-01-25T01:02:21;98950.97;;;1.73;95.36
49515;BME280;35415;47.870;16.058;2023-01-25T01:04:50;98959.94;;;1.72;95.41
49515;BME280;35415;47.870;16.058;2023-01-25T01:07:17;98961.75;;;1.71;95.87
49515;BME280;35415;47.870;16.058;2023-01-25T01:09:44;98957.28;;;1.72;95.77
49515;BME280;35415;47.870;16.058;2023-01-25T01:12:12;98959.94;;;1.72;95.84
49515;BME280;35415;47.870;16.058;2023-01-25T01:14:38;98959.75;;;1.73;95.94
49515;BME280;35415;47.870;16.058;2023-01-25T01:17:05;98961.75;;;1.71;95.59
49515;BME280;35415;47.870;16.058;2023-01-25T01:19:32;98949.31;;;1.72;95.64
49515;BME280;35415;47.870;16.058;2023-01-25T01:22:01;98955.63;;;1.71;96.05
49515;BME280;35415;47.870;16.058;2023-01-25T01:24:28;98959.75;;;1.73;95.50
49515;BME280;35415;47.870;16.058;2023-01-25T01:26:55;98965.22;;;1.72;95.68
49515;BME280;35415;47.870;16.058;2023-01-25T01:29:22;98949.50;;;1.62;95.70
49515;BME280;35415;47.870;16.058;2023-01-25T01:31:50;98936.44;;;1.53;95.70
49515;BME280;35415;47.870;16.058;2023-01-25T01:34:17;98966.06;;;1.72;95.64
49515;BME280;35415;47.870;16.058;2023-01-25T01:36:44;98962.56;;;1.72;95.96
49515;BME280;35415;47.870;16.058;2023-01-25T01:39:13;98938.72;;;1.64;95.86
49515;BME280;35415;47.870;16.058;2023-01-25T01:41:40;98942.66;;;1.68;96.14
49515;BME280;35415;47.870;16.058;2023-01-25T01:44:14;98948.16;;;1.74;96.20
49515;BME280;35415;47.870;16.058;2023-01-25T01:46:46;98952.44;;;1.75;96.06
49515;BME280;35415;47.870;16.058;2023-01-25T01:49:19;98948.97;;;1.75;95.83
49515;BME280;35415;47.870;16.058;2023-01-25T01:51:51;98940.84;;;1.76;95.90
49515;BME280;35415;47.870;16.058;2023-01-25T01:54:23;98947.44;;;1.80;95.74
49515;BME280;35415;47.870;16.058;2023-01-25T01:56:57;98949.63;;;1.77;95.67
49515;BME280;35415;47.870;16.058;2023-01-25T01:59:31;98937.88;;;1.71;96.04
49515;BME280;35415;47.870;16.058;2023-01-25T02:01:59;98941.19;;;1.73;95.66
49515;BME280;35415;47.870;16.058;2023-01-25T02:04:27;98940.34;;;1.73;95.84
49515;BME280;35415;47.870;16.058;2023-01-25T02:06:59;98939.19;;;1.75;96.19
49515;BME280;35415;47.870;16.058;2023-01-25T02:09:30;98938.69;;;1.72;95.77
49515;BME280;35415;47.870;16.058;2023-01-25T02:12:00;98934.72;;;1.76;95.50
49515;BME280;35415;47.870;16.058;2023-01-25T02:14:28;98932.72;;;1.78;95.55
49515;BME280;35415;47.870;16.058;2023-01-25T02:16:55;98925.09;;;1.75;95.50
49515;BME280;35415;47.870;16.058;2023-01-25T02:19:33;98919.78;;;1.75;95.81
49515;BME280;35415;47.870;16.058;2023-01-25T02:22:08;98903.09;;;1.58;95.78
49515;BME280;35415;47.870;16.058;2023-01-25T02:24:42;98924.63;;;1.71;95.51
49515;BME280;35415;47.870;16.058;2023-01-25T02:27:15;98929.09;;;1.71;95.44
49515;BME280;35415;47.870;16.058;2023-01-25T02:29:42;98930.25;;;1.68;95.47
49515;BME280;35415;47.870;16.058;2023-01-25T02:32:09;98931.56;;;1.72;95.40
49515;BME280;35415;47.870;16.058;2023-01-25T02:34:36;98926.28;;;1.72;95.84
49515;BME280;35415;47.870;16.058;2023-01-25T02:37:04;98924.97;;;1.68;95.98
49515;BME280;35415;47.870;16.058;2023-01-25T02:39:31;98925.78;;;1.69;95.76
49515;BME280;35415;47.870;16.058;2023-01-25T02:41:58;98914.34;;;1.68;95.94
49515;BME280;35415;47.870;16.058;2023-01-25T02:44:29;98909.03;;;1.68;95.81
49515;BME280;35415;47.870;16.058;2023-01-25T02:46:57;98910.53;;;1.71;95.91
49515;BME280;35415;47.870;16.058;2023-01-25T02:49:25;98922.63;;;1.65;95.91
49515;BME280;35415;47.870;16.058;2023-01-25T02:51:53;98908.53;;;1.65;95.63
49515;BME280;35415;47.870;16.058;2023-01-25T02:54:22;98909.19;;;1.67;95.51
49515;BME280;35415;47.870;16.058;2023-01-25T02:56:50;98917.66;;;1.62;95.85
49515;BME280;35415;47.870;16.058;2023-01-25T02:59:17;98895.16;;;1.50;95.65
49515;BME280;35415;47.870;16.058;2023-01-25T03:01:46;98910.53;;;1.63;95.88
49515;BME280;35415;47.870;16.058;2023-01-25T03:04:13;98903.94;;;1.59;96.11
49515;BME280;35415;47.870;16.058;2023-01-25T03:06:40;98893.31;;;1.59;96.44
49515;BME280;35415;47.870;16.058;2023-01-25T03:09:09;98887.19;;;1.58;96.18
49515;BME280;35415;47.870;16.058;2023-01-25T03:11:36;98885.72;;;1.56;96.50
49515;BME280;35415;47.870;16.058;2023-01-25T03:14:03;98885.06;;;1.54;96.26
49515;BME280;35415;47.870;16.058;2023-01-25T03:16:31;98888.66;;;1.61;96.11
49515;BME280;35415;47.870;16.058;2023-01-25T03:18:59;98888.66;;;1.61;96.15
49515;BME280;35415;47.870;16.058;2023-01-25T03:21:26;98884.53;;;1.58;95.97
49515;BME280;35415;47.870;16.058;2023-01-25T03:23:54;98882.88;;;1.57;96.18
49515;BME280;35415;47.870;16.058;2023-01-25T03:26:23;98881.88;;;1.58;96.09
49515;BME280;35415;47.870;16.058;2023-01-25T03:28:50;98868.13;;;1.55;95.85
49515;BME280;35415;47.870;16.058;2023-01-25T03:31:17;98868.44;;;1.60;96.07
49515;BME280;35415;47.870;16.058;2023-01-25T03:33:45;98872.28;;;1.57;95.80
49515;BME280;35415;47.870;16.058;2023-01-25T03:36:14;98838.69;;;1.33;96.06
49515;BME280;35415;47.870;16.058;2023-01-25T03:38:41;98880.06;;;1.50;95.95
49515;BME280;35415;47.870;16.058;2023-01-25T03:41:08;98880.06;;;1.50;96.38
49515;BME280;35415;47.870;16.058;2023-01-25T03:43:37;98869.63;;;1.49;96.04
49515;BME280;35415;47.870;16.058;2023-01-25T03:46:05;98850.75;;;1.44;96.18
49515;BME280;35415;47.870;16.058;2023-01-25T03:48:32;98859.19;;;1.47;96.36
49515;BME280;35415;47.870;16.058;2023-01-25T03:51:00;98852.41;;;1.53;96.40
49515;BME280;35415;47.870;16.058;2023-01-25T03:53:29;98852.72;;;1.50;96.35
49515;BME280;35415;47.870;16.058;2023-01-25T03:55:59;98831.91;;;1.31;95.86
49515;BME280;35415;47.870;16.058;2023-01-25T03:58:27;98851.91;;;1.49;95.93
49515;BME280;35415;47.870;16.058;2023-01-25T04:00:55;98845.28;;;1.45;96.54
49515;BME280;35415;47.870;16.058;2023-01-25T04:03:23;98841.63;;;1.46;96.52
49515;BME280;35415;47.870;16.058;2023-01-25T04:05:50;98835.16;;;1.49;95.98
49515;BME280;35415;47.870;16.058;2023-01-25T04:08:18;98832.50;;;1.49;96.13
49515;BME280;35415;47.870;16.058;2023-01-25T04:10:50;98823.06;;;1.46;96.01
49515;BME280;35415;47.870;16.058;2023-01-25T04:13:18;98825.06;;;1.44;96.07
49515;BME280;35415;47.870;16.058;2023-01-25T04:15:45;98826.56;;;1.47;96.33
49515;BME280;35415;47.870;16.058;2023-01-25T04:18:13;98816.13;;;1.45;96.17
49515;BME280;35415;47.870;16.058;2023-01-25T04:20:40;98810.00;;;1.45;96.12
49515;BME280;35415;47.870;16.058;2023-01-25T04:23:07;98816.28;;;1.44;96.50
49515;BME280;35415;47.870;16.058;2023-01-25T04:25:35;98814.81;;;1.41;96.31
49515;BME280;35415;47.870;16.058;2023-01-25T04:28:03;98815.16;;;1.38;96.81
49515;BME280;35415;47.870;16.058;2023-01-25T04:30:30;98814.34;;;1.38;96.71
49515;BME280;35415;47.870;16.058;2023-01-25T04:33:02;98822.94;;;1.40;96.94
49515;BME280;35415;47.870;16.058;2023-01-25T04:35:29;98820.47;;;1.38;96.71
49515;BME280;35415;47.870;16.058;2023-01-25T04:37:58;98831.91;;;1.39;96.99
49515;BME280;35415;47.870;16.058;2023-01-25T04:40:25;98828.59;;;1.37;97.03
49515;BME280;35415;47.870;16.058;2023-01-25T04:42:53;98835.53;;;1.38;96.82
49515;BME280;35415;47.870;16.058;2023-01-25T04:45:21;98835.38;;;1.39;96.91
49515;BME280;35415;47.870;16.058;2023-01-25T04:47:48;98828.75;;;1.35;96.99
49515;BME280;35415;47.870;16.058;2023-01-25T04:50:15;98818.47;;;1.32;97.21
49515;BME280;35415;47.870;16.058;2023-01-25T04:52:42;98837.38;;;1.37;97.15
49515;BME280;35415;47.870;16.058;2023-01-25T04:55:09;98840.84;;;1.38;96.95
49515;BME280;35415;47.870;16.058;2023-01-25T04:57:36;98819.50;;;1.23;97.24
49515;BME280;35415;47.870;16.058;2023-01-25T05:00:04;98834.88;;;1.36;97.39
49515;BME280;35415;47.870;16.058;2023-01-25T05:02:33;98835.72;;;1.36;97.68
49515;BME280;35415;47.870;16.058;2023-01-25T05:05:00;98830.41;;;1.36;97.38
49515;BME280;35415;47.870;16.058;2023-01-25T05:07:27;98834.72;;;1.37;97.30
49515;BME280;35415;47.870;16.058;2023-01-25T05:09:54;98840.84;;;1.38;97.46
49515;BME280;35415;47.870;16.058;2023-01-25T05:12:21;98838.03;;;1.39;97.27
49515;BME280;35415;47.870;16.058;2023-01-25T05:14:48;98837.84;;;1.41;97.55
49515;BME280;35415;47.870;16.058;2023-01-25T05:17:15;98774.84;;;1.04;97.05
49515;BME280;35415;47.870;16.058;2023-01-25T05:19:44;98824.59;;;1.41;97.26
49515;BME280;35415;47.870;16.058;2023-01-25T05:22:12;98822.59;;;1.43;97.03
49515;BME280;35415;47.870;16.058;2023-01-25T05:24:40;98823.41;;;1.43;97.09
49515;BME280;35415;47.870;16.058;2023-01-25T05:27:08;98798.44;;;1.30;97.34
49515;BME280;35415;47.870;16.058;2023-01-25T05:29:35;98814.47;;;1.44;97.19
49515;BME280;35415;47.870;16.058;2023-01-25T05:32:03;98824.72;;;1.47;97.05
49515;BME280;35415;47.870;16.058;2023-01-25T05:34:31;98811.00;;;1.44;96.90
49515;BME280;35415;47.870;16.058;2023-01-25T05:37:00;98814.13;;;1.47;96.87
49515;BME280;35415;47.870;16.058;2023-01-25T05:39:27;98802.50;;;1.48;96.88
49515;BME280;35415;47.870;16.058;2023-01-25T05:41:55;98797.56;;;1.45;97.05
49515;BME280;35415;47.870;16.058;2023-01-25T05:44:22;98794.44;;;1.42;96.85
49515;BME280;35415;47.870;16.058;2023-01-25T05:46:50;98799.38;;;1.45;96.55
49515;BME280;35415;47.870;16.058;2023-01-25T05:49:17;98806.84;;;1.41;96.76
49515;BME280;35415;47.870;16.058;2023-01-25T05:51:45;98797.28;;;1.32;96.74
49515;BME280;35415;47.870;16.058;2023-01-25T05:54:15;98817.13;;;1.44;96.64
49515;BME280;35415;47.870;16.058;2023-01-25T05:56:43;98811.34;;;1.41;96.94
49515;BME280;35415;47.870;16.058;2023-01-25T05:59:11;98811.50;;;1.39;96.78
49515;BME280;35415;47.870;16.058;2023-01-25T06:01:38;98821.28;;;1.39;96.65
49515;BME280;35415;47.870;16.058;2023-01-25T06:04:05;98808.03;;;1.39;96.62
49515;BME280;35415;47.870;16.058;2023-01-25T06:06:32;98812.84;;;1.35;96.68
49515;BME280;35415;47.870;16.058;2023-01-25T06:09:00;98816.00;;;1.39;97.14
49515;BME280;35415;47.870;16.058;2023-01-25T06:11:28;98815.81;;;1.40;97.27
49515;BME280;35415;47.870;16.058;2023-01-25T06:13:55;98820.28;;;1.40;96.79
49515;BME280;35415;47.870;16.058;2023-01-25T06:16:23;98821.28;;;1.39;97.00
49515;BME280;35415;47.870;16.058;2023-01-25T06:18:50;98821.94;;;1.41;97.37
49515;BME280;35415;47.870;16.058;2023-01-25T06:21:17;98818.00;;;1.37;96.99
49515;BME280;35415;47.870;16.058;2023-01-25T06:23:48;98822.13;;;1.39;97.01
49515;BME280;35415;47.870;16.058;2023-01-25T06:26:15;98825.91;;;1.45;97.14
49515;BME280;35415;47.870;16.058;2023-01-25T06:28:43;98822.59;;;1.43;97.29
49515;BME280;35415;47.870;16.058;2023-01-25T06:31:12;98826.06;;;1.43;97.06
49515;BME280;35415;47.870;16.058;2023-01-25T06:33:40;98820.78;;;1.43;96.75
49515;BME280;35415;47.870;16.058;2023-01-25T06:36:11;98815.63;;;1.42;96.69
49515;BME280;35415;47.870;16.058;2023-01-25T06:38:38;98826.06;;;1.43;96.81
49515;BME280;35415;47.870;16.058;2023-01-25T06:41:09;98827.06;;;1.42;96.92
49515;BME280;35415;47.870;16.058;2023-01-25T06:43:37;98836.69;;;1.43;97.00
49515;BME280;35415;47.870;16.058;2023-01-25T06:46:08;98830.56;;;1.43;97.23
49515;BME280;35415;47.870;16.058;2023-01-25T06:48:37;98822.78;;;1.41;96.88
49515;BME280;35415;47.870;16.058;2023-01-25T06:51:06;98832.84;;;1.46;96.87
49515;BME280;35415;47.870;16.058;2023-01-25T06:53:36;98833.84;;;1.45;96.94
49515;BME280;35415;47.870;16.058;2023-01-25T06:56:05;98829.25;;;1.39;96.65
49515;BME280;35415;47.870;16.058;2023-01-25T06:58:33;98837.34;;;1.45;96.85
49515;BME280;35415;47.870;16.058;2023-01-25T07:01:03;98839.97;;;1.45;96.97
49515;BME280;35415;47.870;16.058;2023-01-25T07:03:33;98836.16;;;1.48;96.84
49515;BME280;35415;47.870;16.058;2023-01-25T07:06:03;98823.78;;;1.40;97.06
49515;BME280;35415;47.870;16.058;2023-01-25T07:08:31;98787.22;;;1.19;96.71
49515;BME280;35415;47.870;16.058;2023-01-25T07:11:00;98837.97;;;1.47;96.97
49515;BME280;35415;47.870;16.058;2023-01-25T07:13:29;98840.63;;;1.47;96.96
49515;BME280;35415;47.870;16.058;2023-01-25T07:15:58;98836.97;;;1.48;97.05
49515;BME280;35415;47.870;16.058;2023-01-25T07:18:27;98832.50;;;1.49;96.81
49515;BME280;35415;47.870;16.058;2023-01-25T07:21:05;98820.94;;;1.42;96.89
49515;BME280;35415;47.870;16.058;2023-01-25T07:23:33;98828.84;;;1.50;96.93
49515;BME280;35415;47.870;16.058;2023-01-25T07:26:03;98809.16;;;1.44;97.13
49515;BME280;35415;47.870;16.058;2023-01-25T07:28:31;98822.41;;;1.53;96.72
49515;BME280;35415;47.870;16.058;2023-01-25T07:31:04;98817.09;;;1.53;96.66
49515;BME280;35415;47.870;16.058;2023-01-25T07:33:32;98821.59;;;1.52;96.44
49515;BME280;35415;47.870;16.058;2023-01-25T07:36:00;98745.00;;;1.10;96.72
49515;BME280;35415;47.870;16.058;2023-01-25T07:38:29;98806.16;;;1.56;96.53
49515;BME280;35415;47.870;16.058;2023-01-25T07:40:56;98807.44;;;1.60;96.68
49515;BME280;35415;47.870;16.058;2023-01-25T07:43:24;98803.16;;;1.59;96.26
49515;BME280;35415;47.870;16.058;2023-01-25T07:45:52;98798.00;;;1.57;96.64
49515;BME280;35415;47.870;16.058;2023-01-25T07:48:20;98808.63;;;1.57;96.84
49515;BME280;35415;47.870;16.058;2023-01-25T07:50:47;98799.84;;;1.57;96.69
49515;BME280;35415;47.870;16.058;2023-01-25T07:53:36;98799.66;;;1.58;96.50
49515;BME280;35415;47.870;16.058;2023-01-25T07:56:04;98802.97;;;1.60;96.54
49515;BME280;35415;47.870;16.058;2023-01-25T07:58:31;98801.97;;;1.61;96.40
49515;BME280;35415;47.870;16.058;2023-01-25T08:01:05;98775.34;;;1.46;96.56
49515;BME280;35415;47.870;16.058;2023-01-25T08:03:32;98780.13;;;1.51;96.15
49515;BME280;35415;47.870;16.058;2023-01-25T08:06:00;98807.91;;;1.63;96.51
49515;BME280;35415;47.870;16.058;2023-01-25T08:08:30;98810.56;;;1.63;96.27
49515;BME280;35415;47.870;16.058;2023-01-25T08:11:08;98785.44;;;1.51;96.50
49515;BME280;35415;47.870;16.058;2023-01-25T08:13:37;98807.28;;;1.61;96.48
49515;BME280;35415;47.870;16.058;2023-01-25T08:16:05;98805.78;;;1.59;96.82
49515;BME280;35415;47.870;16.058;2023-01-25T08:18:32;98806.28;;;1.62;96.36
49515;BME280;35415;47.870;16.058;2023-01-25T08:20:59;98807.91;;;1.63;96.27
49515;BME280;35415;47.870;16.058;2023-01-25T08:23:28;98805.91;;;1.65;96.69
49515;BME280;35415;47.870;16.058;2023-01-25T08:25:55;98813.88;;;1.65;96.67
49515;BME280;35415;47.870;16.058;2023-01-25T08:28:28;98802.09;;;1.68;96.59
49515;BME280;35415;47.870;16.058;2023-01-25T08:31:04;98771.69;;;1.47;96.67
49515;BME280;35415;47.870;16.058;2023-01-25T08:33:32;98799.94;;;1.71;96.20
49515;BME280;35415;47.870;16.058;2023-01-25T08:35:59;98798.13;;;1.72;96.60
49515;BME280;35415;47.870;16.058;2023-01-25T08:38:26;98754.59;;;1.50;96.07
49515;BME280;35415;47.870;16.058;2023-01-25T08:40:53;98788.81;;;1.68;96.67
49515;BME280;35415;47.870;16.058;2023-01-25T08:43:20;98794.09;;;1.76;96.40
49515;BME280;35415;47.870;16.058;2023-01-25T08:45:55;98794.09;;;1.76;96.53
49515;BME280;35415;47.870;16.058;2023-01-25T08:48:22;98786.31;;;1.74;96.39
49515;BME280;35415;47.870;16.058;2023-01-25T08:50:49;98788.63;;;1.77;96.60
49515;BME280;35415;47.870;16.058;2023-01-25T08:53:17;98785.16;;;1.77;96.37
49515;BME280;35415;47.870;16.058;2023-01-25T08:55:44;98773.41;;;1.71;96.61
49515;BME280;35415;47.870;16.058;2023-01-25T08:58:12;98788.44;;;1.79;96.07
49515;BME280;35415;47.870;16.058;2023-01-25T09:00:42;98784.44;;;1.83;96.70
49515;BME280;35415;47.870;16.058;2023-01-25T09:03:11;98789.09;;;1.81;96.30
49515;BME280;35415;47.870;16.058;2023-01-25T09:05:38;98776.19;;;1.78;96.75
49515;BME280;35415;47.870;16.058;2023-01-25T09:08:07;98772.72;;;1.77;96.35
49515;BME280;35415;47.870;16.058;2023-01-25T09:10:36;98778.81;;;1.86;96.68
49515;BME280;35415;47.870;16.058;2023-01-25T09:13:03;98777.44;;;1.90;96.30
49515;BME280;35415;47.870;16.058;2023-01-25T09:15:30;98773.31;;;1.88;96.38
49515;BME280;35415;47.870;16.058;2023-01-25T09:17:57;98704.63;;;1.39;96.04
49515;BME280;35415;47.870;16.058;2023-01-25T09:20:26;98769.19;;;1.85;96.32
49515;BME280;35415;47.870;16.058;2023-01-25T09:22:54;98770.97;;;1.93;96.26
49515;BME280;35415;47.870;16.058;2023-01-25T09:25:21;98768.31;;;1.93;96.44
49515;BME280;35415;47.870;16.058;2023-01-25T09:27:49;98759.34;;;1.94;96.22
49515;BME280;35415;47.870;16.058;2023-01-25T09:30:17;98762.66;;;1.96;96.39
49515;BME280;35415;47.870;16.058;2023-01-25T09:32:47;98759.63;;;1.99;95.91
49515;BME280;35415;47.870;16.058;2023-01-25T09:35:15;98742.78;;;1.92;95.79
49515;BME280;35415;47.870;16.058;2023-01-25T09:37:49;98755.16;;;1.99;96.02
49515;BME280;35415;47.870;16.058;2023-01-25T09:40:19;98758.44;;;2.01;95.65
49515;BME280;35415;47.870;16.058;2023-01-25T09:42:59;98754.97;;;2.01;95.96
49515;BME280;35415;47.870;16.058;2023-01-25T09:45:31;98743.78;;;1.91;95.43
49515;BME280;35415;47.870;16.058;2023-01-25T09:48:04;98752.63;;;2.06;95.80
49515;BME280;35415;47.870;16.058;2023-01-25T09:50:44;98753.09;;;2.09;95.50
49515;BME280;35415;47.870;16.058;2023-01-25T09:53:26;98753.94;;;2.10;95.53
49515;BME280;35415;47.870;16.058;2023-01-25T09:55:59;98751.09;;;2.11;95.32
49515;BME280;35415;47.870;16.058;2023-01-25T09:58:32;98747.44;;;2.13;95.49
49515;BME280;35415;47.870;16.058;2023-01-25T10:01:20;98745.06;;;2.18;95.35
49515;BME280;35415;47.870;16.058;2023-01-25T10:03:53;98742.41;;;2.18;95.20
49515;BME280;35415;47.870;16.058;2023-01-25T10:06:24;98730.16;;;2.17;95.03
49515;BME280;35415;47.870;16.058;2023-01-25T10:08:59;98728.16;;;2.19;94.84
49515;BME280;35415;47.870;16.058;2023-01-25T10:11:30;98706.63;;;2.14;94.79
49515;BME280;35415;47.870;16.058;2023-01-25T10:13:59;98703.59;;;2.17;94.69
49515;BME280;35415;47.870;16.058;2023-01-25T10:16:30;98712.06;;;2.20;94.60
49515;BME280;35415;47.870;16.058;2023-01-25T10:19:06;98708.84;;;2.25;94.65
49515;BME280;35415;47.870;16.058;2023-01-25T10:21:41;98703.72;;;2.23;94.70
49515;BME280;35415;47.870;16.058;2023-01-25T10:24:27;98701.72;;;2.25;94.73
49515;BME280;35415;47.870;16.058;2023-01-25T10:27:01;98684.84;;;2.18;94.23
49515;BME280;35415;47.870;16.058;2023-01-25T10:29:31;98689.25;;;2.26;94.80
49515;BME280;35415;47.870;16.058;2023-01-25T10:32:11;98658.38;;;2.10;94.51
49515;BME280;35415;47.870;16.058;2023-01-25T10:34:45;98683.41;;;2.30;94.32
49515;BME280;35415;47.870;16.058;2023-01-25T10:37:18;98679.94;;;2.30;94.59
49515;BME280;35415;47.870;16.058;2023-01-25T10:39:53;98674.25;;;2.33;94.38
49515;BME280;35415;47.870;16.058;2023-01-25T10:42:26;98664.28;;;2.35;94.47
49515;BME280;35415;47.870;16.058;2023-01-25T10:44:55;98661.63;;;2.35;94.15
49515;BME280;35415;47.870;16.058;2023-01-25T10:47:26;98651.66;;;2.37;94.32
49515;BME280;35415;47.870;16.058;2023-01-25T10:49:56;98644.16;;;2.40;94.39
49515;BME280;35415;47.870;16.058;2023-01-25T10:52:26;98641.13;;;2.44;94.44
49515;BME280;35415;47.870;16.058;2023-01-25T10:55:14;98632.97;;;2.45;93.93
49515;BME280;35415;47.870;16.058;2023-01-25T10:57:43;98629.97;;;2.48;94.00
49515;BME280;35415;47.870;16.058;2023-01-25T11:00:23;98629.78;;;2.50;93.75
49515;BME280;35415;47.870;16.058;2023-01-25T11:02:52;98628.94;;;2.49;93.80
49515;BME280;35415;47.870;16.058;2023-01-25T11:05:30;98634.06;;;2.51;93.94
49515;BME280;35415;47.870;16.058;2023-01-25T11:08:13;98625.94;;;2.52;93.78
49515;BME280;35415;47.870;16.058;2023-01-25T11:10:44;98585.91;;;2.24;93.64
49515;BME280;35415;47.870;16.058;2023-01-25T11:13:20;98624.56;;;2.56;94.21
49515;BME280;35415;47.870;16.058;2023-01-25T11:15:50;98625.41;;;2.57;93.92
49515;BME280;35415;47.870;16.058;2023-01-25T11:18:21;98600.28;;;2.45;93.87
49515;BME280;35415;47.870;16.058;2023-01-25T11:21:06;98614.84;;;2.63;93.67
49515;BME280;35415;47.870;16.058;2023-01-25T11:23:39;98619.59;;;2.68;94.00
49515;BME280;35415;47.870;16.058;2023-01-25T11:26:13;98616.13;;;2.67;93.71
49515;BME280;35415;47.870;16.058;2023-01-25T11:28:42;98612.13;;;2.71;93.35
49515;BME280;35415;47.870;16.058;2023-01-25T11:31:12;98600.47;;;2.72;93.74
49515;BME280;35415;47.870;16.058;2023-01-25T11:33:40;98602.94;;;2.74;93.70
49515;BME280;35415;47.870;16.058;2023-01-25T11:36:27;98588.47;;;2.77;93.13
49515;BME280;35415;47.870;16.058;2023-01-25T11:39:16;98591.38;;;2.82;93.33
49515;BME280;35415;47.870;16.058;2023-01-25T11:41:54;98591.38;;;2.82;93.43
49515;BME280;35415;47.870;16.058;2023-01-25T11:47:37;98577.72;;;2.85;92.71
49515;BME280;35415;47.870;16.058;2023-01-25T11:50:11;98571.56;;;2.84;92.68
49515;BME280;35415;47.870;16.058;2023-01-25T11:52:53;98560.78;;;2.86;92.56
49515;BME280;35415;47.870;16.058;2023-01-25T11:55:25;98555.09;;;2.89;92.52
49515;BME280;35415;47.870;16.058;2023-01-25T11:58:09;98557.19;;;2.93;92.96
49515;BME280;35415;47.870;16.058;2023-01-25T12:00:47;98548.19;;;2.94;92.60
49515;BME280;35415;47.870;16.058;2023-01-25T12:03:52;98548.19;;;2.94;92.74
49515;BME280;35415;47.870;16.058;2023-01-25T12:06:32;98533.81;;;3.04;92.72
49515;BME280;35415;47.870;16.058;2023-01-25T12:09:15;98536.47;;;3.04;92.85
49515;BME280;35415;47.870;16.058;2023-01-25T12:11:49;98521.56;;;3.09;93.16
49515;BME280;35415;47.870;16.058;2023-01-25T12:14:22;98512.41;;;3.12;92.86
49515;BME280;35415;47.870;16.058;2023-01-25T12:17:10;98516.91;;;3.11;92.10
49515;BME280;35415;47.870;16.058;2023-01-25T12:19:56;98505.63;;;3.09;92.11
49515;BME280;35415;47.870;16.058;2023-01-25T12:22:41;98498.28;;;3.11;92.40
49515;BME280;35415;47.870;16.058;2023-01-25T12:25:20;98462.72;;;2.91;91.83
49515;BME280;35415;47.870;16.058;2023-01-25T12:28:08;98489.94;;;3.14;91.79
49515;BME280;35415;47.870;16.058;2023-01-25T12:30:44;98485.25;;;3.16;91.92
49515;BME280;35415;47.870;16.058;2023-01-25T12:33:19;98475.22;;;3.18;91.92
49515;BME280;35415;47.870;16.058;2023-01-25T12:35:53;98477.72;;;3.20;91.52
49515;BME280;35415;47.870;16.058;2023-01-25T12:38:26;98432.72;;;2.97;91.67
49515;BME280;35415;47.870;16.058;2023-01-25T12:40:58;98468.06;;;3.19;91.36
49515;BME280;35415;47.870;16.058;2023-01-25T12:43:29;98464.88;;;3.23;91.95
49515;BME280;35415;47.870;16.058;2023-01-25T12:46:08;98434.63;;;3.03;91.76
49515;BME280;35415;47.870;16.058;2023-01-25T12:48:40;98441.63;;;3.11;92.55
49515;BME280;35415;47.870;16.058;2023-01-25T12:51:13;98451.13;;;3.20;92.44
49515;BME280;35415;47.870;16.058;2023-01-25T12:53:44;98440.88;;;3.17;92.42
49515;BME280;35415;47.870;16.058;2023-01-25T12:56:24;98400.19;;;2.95;92.10
49515;BME280;35415;47.870;16.058;2023-01-25T12:58:59;98401.25;;;3.00;92.14
49515;BME280;35415;47.870;16.058;2023-01-25T13:01:34;98383.00;;;2.91;92.15
49515;BME280;35415;47.870;16.058;2023-01-25T13:04:22;98434.22;;;3.27;92.31
49515;BME280;35415;47.870;16.058;2023-01-25T13:06:56;98438.50;;;3.28;92.26
49515;BME280;35415;47.870;16.058;2023-01-25T13:09:33;98427.69;;;3.30;92.17
49515;BME280;35415;47.870;16.058;2023-01-25T13:12:10;98428.31;;;3.32;92.09
49515;BME280;35415;47.870;16.058;2023-01-25T13:14:38;98431.41;;;3.36;92.07
49515;BME280;35415;47.870;16.058;2023-01-25T13:17:19;98432.06;;;3.38;91.96
49515;BME280;35415;47.870;16.058;2023-01-25T13:19:47;98421.03;;;3.41;91.33